TimeEDT,TemperatureF,Dew PointF,Humidity,Sea Level PressureIn,VisibilityMPH,Wind Direction,Wind SpeedMPH,Gust SpeedMPH,PrecipitationIn,Events,Conditions,WindDirDegrees,DateUTC
12:17 AM,73.4,66.2,78,29.74,10.0,South,5.8,-,N/A,,Clear,190,2013-05-12 04:17:00
12:56 AM,73.4,66.2,78,29.75,10.0,SW,9.2,-,N/A,,Scattered Clouds,230,2013-05-12 04:56:00
1:16 AM,69.8,62.6,78,29.76,10.0,NW,12.7,26.5,N/A,,Mostly Cloudy,320,2013-05-12 05:16:00
1:36 AM,69.8,60.8,73,29.76,10.0,NNW,4.6,16.1,N/A,,Overcast,340,2013-05-12 05:36:00
1:56 AM,68.0,60.8,78,29.75,10.0,Calm,Calm,-,N/A,Rain,Light Rain,0,2013-05-12 05:56:00
2:17 AM,66.2,62.6,88,29.76,7.0,Calm,Calm,-,0.03,Rain,Rain,0,2013-05-12 06:17:00
2:36 AM,66.2,62.6,88,29.77,10.0,Calm,Calm,-,0.03,,Overcast,0,2013-05-12 06:36:00
2:56 AM,66.2,62.6,88,29.75,10.0,Calm,Calm,-,N/A,,Mostly Cloudy,0,2013-05-12 06:56:00
3:16 AM,64.4,62.6,94,29.75,7.0,Calm,Calm,-,N/A,,Scattered Clouds,0,2013-05-12 07:16:00
3:36 AM,66.2,62.6,88,29.77,10.0,WSW,4.6,-,N/A,,Mostly Cloudy,250,2013-05-12 07:36:00
3:56 AM,66.2,62.6,88,29.77,10.0,West,6.9,-,N/A,,Overcast,270,2013-05-12 07:56:00
4:16 AM,66.2,62.6,88,29.77,10.0,West,3.5,-,N/A,,Mostly Cloudy,280,2013-05-12 08:16:00
4:37 AM,66.2,64.4,94,29.77,10.0,West,3.5,-,N/A,,Drizzle,280,2013-05-12 08:37:00
4:56 AM,66.2,64.4,94,29.77,10.0,West,6.9,-,N/A,Rain,Light Rain,280,2013-05-12 08:56:00
5:16 AM,66.2,64.4,94,29.77,7.0,West,4.6,-,0.01,Rain,Rain,280,2013-05-12 09:16:00
5:36 AM,66.2,64.4,94,29.78,10.0,NW,3.5,-,0.01,,Light Drizzle,320,2013-05-12 09:36:00
5:57 AM,66.2,64.4,94,29.78,10.0,Calm,Calm,-,N/A,Rain,Light Rain,0,2013-05-12 09:57:00
6:16 AM,66.2,62.6,88,29.77,10.0,NNW,3.5,-,N/A,,Scattered Clouds,330,2013-05-12 10:16:00
6:37 AM,66.2,62.6,88,29.78,10.0,NNW,5.8,-,N/A,Rain,Light Rain,340,2013-05-12 10:37:00
6:57 AM,64.4,60.8,88,29.78,10.0,NNW,5.8,-,N/A,,Scattered Clouds,340,2013-05-12 10:57:00
7:18 AM,64.4,60.8,88,29.79,10.0,NW,3.5,-,N/A,,Overcast,320,2013-05-12 11:18:00
7:37 AM,64.4,60.8,88,29.80,10.0,Calm,Calm,-,N/A,,Overcast,0,2013-05-12 11:37:00
7:57 AM,64.4,57.2,77,29.80,10.0,NW,6.9,-,N/A,,Overcast,320,2013-05-12 11:57:00
8:18 AM,64.4,55.4,73,29.80,10.0,NNW,4.6,-,N/A,,Overcast,330,2013-05-12 12:18:00
8:37 AM,64.4,55.4,73,29.82,10.0,NW,6.9,-,N/A,,Overcast,310,2013-05-12 12:37:00
8:57 AM,64.4,57.2,77,29.82,7.0,NW,6.9,-,N/A,Rain,Light Rain,320,2013-05-12 12:57:00
9:17 AM,64.4,57.2,77,29.82,10.0,NNW,4.6,-,N/A,,Overcast,330,2013-05-12 13:17:00
9:37 AM,64.4,57.2,77,29.83,10.0,NW,8.1,-,N/A,Rain,Light Rain,320,2013-05-12 13:37:00
9:56 AM,64.4,57.2,77,29.82,10.0,North,4.6,-,N/A,Rain,Light Rain,350,2013-05-12 13:56:00
10:17 AM,64.4,57.2,77,29.83,10.0,NNW,5.8,-,0.01,Rain,Light Rain,330,2013-05-12 14:17:00
10:36 AM,66.2,55.4,68,29.84,10.0,NNW,4.6,-,0.01,,Mostly Cloudy,340,2013-05-12 14:36:00
10:58 AM,68.0,53.6,60,29.84,10.0,North,8.1,-,N/A,,Mostly Cloudy,350,2013-05-12 14:58:00
11:18 AM,69.8,55.4,60,29.83,7.0,NW,11.5,17.3,N/A,,Scattered Clouds,310,2013-05-12 15:18:00
11:37 AM,69.8,55.4,60,29.83,10.0,NNW,11.5,17.3,N/A,,Mostly Cloudy,340,2013-05-12 15:37:00
11:57 AM,69.8,53.6,56,29.83,10.0,WNW,13.8,19.6,N/A,,Scattered Clouds,300,2013-05-12 15:57:00
12:17 PM,69.8,51.8,53,29.83,10.0,NW,13.8,24.2,N/A,,Clear,310,2013-05-12 16:17:00
12:37 PM,69.8,51.8,53,29.83,10.0,NNW,9.2,18.4,N/A,,Clear,330,2013-05-12 16:37:00
12:57 PM,69.8,51.8,53,29.84,10.0,NNW,12.7,19.6,N/A,,Clear,340,2013-05-12 16:57:00
1:17 PM,69.8,51.8,53,29.83,10.0,North,6.9,16.1,N/A,,Scattered Clouds,350,2013-05-12 17:17:00
1:37 PM,69.8,51.8,53,29.83,10.0,NNW,8.1,17.3,N/A,,Scattered Clouds,330,2013-05-12 17:37:00
1:57 PM,69.8,53.6,56,29.83,10.0,North,10.4,16.1,N/A,,Mostly Cloudy,350,2013-05-12 17:57:00
2:16 PM,69.8,51.8,53,29.84,10.0,NW,16.1,23.0,N/A,,Scattered Clouds,310,2013-05-12 18:16:00
2:36 PM,69.8,51.8,53,29.84,10.0,NNW,8.1,19.6,N/A,,Scattered Clouds,340,2013-05-12 18:36:00
2:56 PM,69.8,50.0,49,29.84,10.0,NW,15.0,20.7,N/A,,Scattered Clouds,310,2013-05-12 18:56:00
3:16 PM,69.8,46.4,43,29.84,10.0,NNW,8.1,21.9,N/A,,Clear,340,2013-05-12 19:16:00
3:36 PM,69.8,46.4,43,29.84,10.0,NNW,9.2,19.6,N/A,,Clear,330,2013-05-12 19:36:00
3:58 PM,69.8,44.6,40,29.84,10.0,NW,15.0,18.4,N/A,,Clear,320,2013-05-12 19:58:00
4:16 PM,68.0,46.4,46,29.85,10.0,NNW,8.1,17.3,N/A,,Scattered Clouds,330,2013-05-12 20:16:00
4:36 PM,69.8,46.4,43,29.85,10.0,North,5.8,18.4,N/A,,Scattered Clouds,350,2013-05-12 20:36:00
4:57 PM,69.8,44.6,40,29.85,10.0,NNW,12.7,18.4,N/A,,Scattered Clouds,330,2013-05-12 20:57:00
5:16 PM,69.8,44.6,40,29.86,10.0,NNW,6.9,-,N/A,,Scattered Clouds,340,2013-05-12 21:16:00
5:36 PM,68.0,42.8,40,29.86,10.0,North,12.7,17.3,N/A,,Scattered Clouds,350,2013-05-12 21:36:00
5:56 PM,69.8,42.8,38,29.87,10.0,NNW,10.4,16.1,N/A,,Mostly Cloudy,330,2013-05-12 21:56:00
6:16 PM,66.2,41.0,40,29.88,10.0,NNW,8.1,18.4,N/A,,Mostly Cloudy,340,2013-05-12 22:16:00
6:36 PM,68.0,41.0,37,29.88,10.0,NNW,11.5,-,N/A,,Scattered Clouds,340,2013-05-12 22:36:00
6:58 PM,66.2,41.0,40,29.90,10.0,North,4.6,-,N/A,,Clear,350,2013-05-12 22:58:00
7:16 PM,64.4,39.2,40,29.91,10.0,NNW,6.9,-,N/A,,Clear,340,2013-05-12 23:16:00
7:36 PM,64.4,39.2,40,29.91,10.0,North,4.6,-,N/A,,Scattered Clouds,350,2013-05-12 23:36:00
7:56 PM,62.6,41.0,45,29.92,10.0,Calm,Calm,-,N/A,,Clear,0,2013-05-12 23:56:00
8:16 PM,62.6,41.0,45,29.93,10.0,North,4.6,-,N/A,,Clear,10,2013-05-13 00:16:00
8:36 PM,60.8,39.2,45,29.95,10.0,North,3.5,-,N/A,,Clear,10,2013-05-13 00:36:00
8:56 PM,57.2,44.6,63,29.96,10.0,North,3.5,-,N/A,,Clear,10,2013-05-13 00:56:00
9:16 PM,55.4,46.4,72,29.97,10.0,North,5.8,-,N/A,,Clear,10,2013-05-13 01:16:00
9:36 PM,59.0,39.2,48,29.98,10.0,North,5.8,-,N/A,,Clear,360,2013-05-13 01:36:00
9:57 PM,60.8,37.4,42,29.99,10.0,North,6.9,-,N/A,,Clear,360,2013-05-13 01:57:00
10:16 PM,59.0,37.4,45,30.00,10.0,North,5.8,-,N/A,,Clear,360,2013-05-13 02:16:00
10:36 PM,60.8,35.6,39,30.01,10.0,North,8.1,-,N/A,,Clear,360,2013-05-13 02:36:00
10:56 PM,60.8,35.6,39,30.02,10.0,North,6.9,-,N/A,,Clear,360,2013-05-13 02:56:00
11:16 PM,60.8,35.6,39,30.02,10.0,North,5.8,-,N/A,,Clear,350,2013-05-13 03:16:00
11:37 PM,57.2,39.2,51,30.03,10.0,NNW,4.6,-,N/A,,Scattered Clouds,340,2013-05-13 03:37:00
11:56 PM,60.8,33.8,36,30.03,10.0,NNW,6.9,-,N/A,,Scattered Clouds,340,2013-05-13 03:56:00